createdAt,value
2019-03-01T00:01:59.459Z,33.30
2019-03-01T00:04:31.163Z,33.23
2019-03-01T00:07:19.263Z,35.43
2019-03-01T00:10:13.279Z,29.03
2019-03-01T00:13:21.316Z,34.80
2019-03-01T00:16:19.622Z,31.93
2019-03-01T00:19:17.112Z,35.90
2019-03-01T00:21:54.521Z,34.00
2019-03-01T00:24:47.891Z,33.97
2019-03-01T00:27:51.265Z,33.97
2019-03-01T00:30:54.902Z,34.47
2019-03-01T00:33:53.831Z,33.77
2019-03-01T00:36:48.351Z,36.90
2019-03-01T00:39:37.656Z,36.03
2019-03-01T00:42:27.876Z,31.47
2019-03-01T00:44:56.493Z,30.97
2019-03-01T00:47:25.050Z,35.47
2019-03-01T00:49:56.876Z,31.07
2019-03-01T00:52:28.155Z,31.70
2019-03-01T00:54:56.768Z,30.40
2019-03-01T00:57:28.025Z,31.53
2019-03-01T00:59:59.623Z,28.33
2019-03-01T01:02:31.309Z,31.07
2019-03-01T01:04:59.950Z,27.20
2019-03-01T01:07:31.562Z,27.90
2019-03-01T01:10:03.781Z,28.83
2019-03-01T01:12:35.322Z,29.53
2019-03-01T01:15:08.248Z,29.10
2019-03-01T01:17:37.378Z,30.70
2019-03-01T01:20:10.313Z,28.50
2019-03-01T01:22:41.567Z,31.93
2019-03-01T01:25:10.180Z,27.97
2019-03-01T01:27:41.102Z,27.37
2019-03-01T01:30:12.867Z,26.03
2019-03-01T01:32:44.558Z,25.60
2019-03-01T01:35:17.068Z,24.57
2019-03-01T01:37:45.946Z,23.57
2019-03-01T01:40:17.295Z,23.80
2019-03-01T01:42:49.168Z,25.63
2019-03-01T01:45:20.989Z,23.90
2019-03-01T01:47:50.379Z,25.83
2019-03-01T01:50:21.781Z,25.77
2019-03-01T01:52:53.475Z,23.70
2019-03-01T01:55:25.320Z,25.00
2019-03-01T01:57:53.929Z,26.13
2019-03-01T02:00:25.388Z,23.93
2019-03-01T02:02:54.269Z,23.73
2019-03-01T02:05:25.872Z,22.27
2019-03-01T02:07:54.542Z,23.37
2019-03-01T02:10:26.328Z,21.77
2019-03-01T02:12:57.702Z,23.97
2019-03-01T02:15:29.395Z,24.67
2019-03-01T02:17:58.110Z,26.77
2019-03-01T02:20:29.585Z,25.93
2019-03-01T02:22:58.300Z,26.90
2019-03-01T02:25:29.919Z,25.90
2019-03-01T02:27:58.602Z,26.67
2019-03-01T02:30:38.503Z,28.70
2019-03-01T02:33:07.103Z,29.50
2019-03-01T02:35:41.561Z,28.60
2019-03-01T02:38:10.145Z,29.70
2019-03-01T02:40:38.802Z,26.50
2019-03-01T02:43:07.523Z,25.33
2019-03-01T02:45:36.227Z,25.30
2019-03-01T02:48:05.561Z,26.93
2019-03-01T02:50:39.834Z,23.57
2019-03-01T02:53:11.628Z,24.37
2019-03-01T02:55:43.518Z,26.10
2019-03-01T02:58:12.135Z,24.53
2019-03-01T03:00:40.946Z,29.17
2019-03-01T03:03:12.836Z,26.03
2019-03-01T03:05:45.950Z,24.50
2019-03-01T03:08:17.221Z,27.27
2019-03-01T03:10:48.503Z,23.83
2019-03-01T03:13:18.358Z,25.97
2019-03-01T03:15:51.551Z,23.60
2019-03-01T03:18:20.155Z,25.60
2019-03-01T03:20:51.434Z,23.60
2019-03-01T03:23:23.113Z,23.10
2019-03-01T03:25:54.387Z,23.03
2019-03-01T03:28:25.655Z,24.53
2019-03-01T03:30:57.237Z,22.60
2019-03-01T03:33:25.845Z,22.40
2019-03-01T03:35:57.422Z,24.03
2019-03-01T03:38:26.082Z,25.57
2019-03-01T03:40:57.578Z,22.60
2019-03-01T03:43:28.984Z,25.57
2019-03-01T03:46:00.576Z,26.20
2019-03-01T03:48:29.123Z,26.23
2019-03-01T03:51:00.451Z,22.83
2019-03-01T03:53:32.538Z,24.53
2019-03-01T03:56:04.017Z,24.30
2019-03-01T03:58:32.827Z,24.77
2019-03-01T04:01:04.408Z,25.30
2019-03-01T04:03:35.679Z,22.53
2019-03-01T04:06:06.993Z,25.27
2019-03-01T04:08:35.561Z,24.07
2019-03-01T04:11:07.154Z,23.87
2019-03-01T04:13:35.711Z,23.40
2019-03-01T04:16:04.435Z,23.07
2019-03-01T04:18:33.341Z,23.10
2019-03-01T04:21:04.942Z,22.87
2019-03-01T04:23:36.373Z,25.00
2019-03-01T04:26:08.259Z,24.57
2019-03-01T04:28:39.847Z,21.43
2019-03-01T04:31:10.946Z,22.30
2019-03-01T04:33:39.514Z,21.20
2019-03-01T04:36:10.015Z,21.60
2019-03-01T04:38:41.547Z,24.97
2019-03-01T04:41:13.065Z,24.03
2019-03-01T04:43:41.677Z,22.77
2019-03-01T04:46:13.258Z,23.43
2019-03-01T04:48:41.872Z,25.20
2019-03-01T04:51:13.156Z,21.67
2019-03-01T04:53:44.732Z,25.53
2019-03-01T04:56:16.016Z,23.87
2019-03-01T04:58:44.621Z,24.73
2019-03-01T05:01:16.363Z,23.73
2019-03-01T05:03:47.608Z,24.07
2019-03-01T05:06:19.254Z,23.83
2019-03-01T05:08:51.037Z,20.53
2019-03-01T05:11:19.649Z,21.70
2019-03-01T05:13:51.151Z,21.70
2019-03-01T05:16:22.909Z,21.10
2019-03-01T05:18:51.520Z,24.03
2019-03-01T05:21:22.893Z,27.13
2019-03-01T05:23:51.505Z,23.10
2019-03-01T05:26:20.073Z,28.17
2019-03-01T05:28:51.591Z,30.00
2019-03-01T05:31:23.475Z,27.17
2019-03-01T05:33:52.454Z,31.97
2019-03-01T05:36:24.315Z,28.43
2019-03-01T05:38:52.896Z,29.10
2019-03-01T05:41:24.272Z,30.67
2019-03-01T05:43:55.852Z,30.73
2019-03-01T05:46:27.125Z,29.20
2019-03-01T05:48:56.145Z,32.63
2019-03-01T05:51:27.523Z,27.47
2019-03-01T05:53:58.793Z,31.50
2019-03-01T05:56:27.398Z,33.93
2019-03-01T05:59:13.929Z,32.27
2019-03-01T06:02:08.393Z,31.13
2019-03-01T06:04:45.781Z,32.50
2019-03-01T06:07:29.458Z,33.07
2019-03-01T06:10:09.383Z,35.77
2019-03-01T06:12:49.826Z,33.13
2019-03-01T06:15:42.082Z,31.73
2019-03-01T06:18:31.453Z,31.03
2019-03-01T06:21:32.184Z,31.70
2019-03-01T06:24:24.674Z,36.63
2019-03-01T06:27:16.953Z,32.50
2019-03-01T06:30:04.683Z,40.83
2019-03-01T06:32:51.560Z,36.03
2019-03-01T06:35:32.108Z,36.40
2019-03-01T06:38:49.251Z,32.40
2019-03-01T06:41:37.524Z,31.80
2019-03-01T06:44:11.695Z,32.87
2019-03-01T06:47:09.111Z,37.57
2019-03-01T06:49:53.691Z,34.80
2019-03-01T06:52:23.671Z,32.43
2019-03-01T06:54:52.249Z,35.70
2019-03-01T06:57:24.058Z,54.97
2019-03-01T06:59:52.974Z,36.57
2019-03-01T07:02:25.916Z,43.30
2019-03-01T07:05:01.313Z,44.70
2019-03-01T07:07:38.018Z,43.47
2019-03-01T07:10:11.156Z,40.97
2019-03-01T07:12:39.737Z,38.40
2019-03-01T07:15:08.924Z,35.77
2019-03-01T07:17:40.389Z,38.33
2019-03-01T07:20:10.488Z,38.40
2019-03-01T07:22:43.441Z,38.37
2019-03-01T07:25:11.992Z,33.37
2019-03-01T07:27:43.536Z,36.50
2019-03-01T07:30:13.726Z,33.83
2019-03-01T07:32:46.031Z,35.57
2019-03-01T07:35:17.985Z,33.70
2019-03-01T07:37:47.107Z,36.83
2019-03-01T07:40:15.717Z,37.97
2019-03-01T07:42:44.323Z,33.60
2019-03-01T07:45:14.695Z,35.10
2019-03-01T07:47:43.915Z,36.67
2019-03-01T07:50:14.064Z,36.47
2019-03-01T07:52:45.439Z,37.73
2019-03-01T07:55:14.049Z,40.47
2019-03-01T07:57:42.976Z,36.20
2019-03-01T08:00:18.152Z,41.63
2019-03-01T08:02:46.723Z,37.93
2019-03-01T08:05:17.983Z,40.23
2019-03-01T08:07:56.005Z,39.53
2019-03-01T08:10:22.402Z,39.00
2019-03-01T08:12:53.082Z,43.73
2019-03-01T08:15:24.557Z,40.07
2019-03-01T08:17:53.119Z,42.03
2019-03-01T08:20:21.793Z,38.50
2019-03-01T08:22:53.167Z,40.93
2019-03-01T08:25:24.778Z,40.87
2019-03-01T08:27:53.371Z,42.83
2019-03-01T08:30:24.651Z,57.50
2019-03-01T08:32:56.607Z,41.03
2019-03-01T08:35:31.006Z,37.93
2019-03-01T08:38:01.195Z,34.60
2019-03-01T08:40:29.776Z,33.40
2019-03-01T08:43:01.340Z,34.80
2019-03-01T08:45:33.716Z,31.80
2019-03-01T08:48:03.117Z,33.93
2019-03-01T08:50:34.453Z,35.73
2019-03-01T08:53:06.236Z,36.00
2019-03-01T08:55:35.610Z,36.83
2019-03-01T08:58:09.610Z,35.10
2019-03-01T09:00:43.719Z,41.13
2019-03-01T09:03:30.485Z,38.83
2019-03-01T09:05:59.033Z,37.00
2019-03-01T09:08:30.340Z,42.07
2019-03-01T09:10:59.557Z,36.50
2019-03-01T09:13:31.131Z,50.90
2019-03-01T09:15:59.757Z,39.80
2019-03-01T09:18:31.323Z,43.53
2019-03-01T09:21:05.645Z,39.37
2019-03-01T09:23:30.202Z,39.13
2019-03-01T09:25:58.781Z,37.73
2019-03-01T09:28:32.815Z,39.10
2019-03-01T09:31:03.741Z,42.73
2019-03-01T09:33:35.335Z,39.23
2019-03-01T09:36:10.950Z,37.30
2019-03-01T09:38:42.892Z,36.13
2019-03-01T09:41:12.255Z,33.93
2019-03-01T09:43:43.850Z,30.30
2019-03-01T09:46:12.458Z,32.23
2019-03-01T09:48:41.186Z,33.93
2019-03-01T09:51:12.807Z,32.47
2019-03-01T09:53:44.161Z,32.17
2019-03-01T09:56:15.557Z,31.73
2019-03-01T09:58:47.033Z,31.80
2019-03-01T10:01:18.160Z,31.87
2019-03-01T10:03:47.148Z,27.60
2019-03-01T10:06:18.711Z,32.00
2019-03-01T10:08:50.273Z,29.47
2019-03-01T10:11:21.893Z,31.10
2019-03-01T10:13:53.352Z,31.37
2019-03-01T10:16:21.938Z,30.00
2019-03-01T10:18:53.212Z,29.07
2019-03-01T10:21:21.889Z,30.53
2019-03-01T10:23:53.577Z,31.37
2019-03-01T10:26:22.329Z,29.90
2019-03-01T10:28:50.891Z,31.50
2019-03-01T10:31:22.455Z,32.23
2019-03-01T10:33:51.015Z,29.87
2019-03-01T10:36:19.610Z,30.37
2019-03-01T10:38:51.032Z,31.13
2019-03-01T10:41:19.602Z,33.37
2019-03-01T10:43:50.888Z,32.37
2019-03-01T10:46:22.394Z,32.97
2019-03-01T10:48:51.982Z,28.10
2019-03-01T10:51:23.213Z,28.23
2019-03-01T10:53:54.759Z,29.37
2019-03-01T10:56:27.408Z,31.27
2019-03-01T10:58:58.903Z,31.60
2019-03-01T11:01:30.480Z,32.53
2019-03-01T11:04:02.239Z,32.57
2019-03-01T11:06:30.823Z,29.97
2019-03-01T11:09:02.080Z,32.33
2019-03-01T11:11:30.649Z,31.90
2019-03-01T11:14:01.875Z,33.57
2019-03-01T11:16:33.134Z,35.60
2019-03-01T11:19:04.596Z,34.37
2019-03-01T11:21:35.949Z,38.50
2019-03-01T11:24:09.269Z,35.43
2019-03-01T11:26:37.859Z,36.80
2019-03-01T11:29:09.658Z,35.50
2019-03-01T11:31:41.190Z,37.03
2019-03-01T11:34:12.662Z,37.77
2019-03-01T11:36:41.251Z,39.60
2019-03-01T11:39:14.102Z,38.70
2019-03-01T11:41:42.684Z,38.07
2019-03-01T11:44:14.259Z,33.53
2019-03-01T11:46:43.160Z,37.70
2019-03-01T11:49:12.121Z,33.20
2019-03-01T11:51:43.361Z,35.83
2019-03-01T11:54:14.954Z,37.63
2019-03-01T11:56:46.254Z,35.67
2019-03-01T11:59:14.837Z,34.77
2019-03-01T12:01:46.125Z,34.60
2019-03-01T12:04:15.246Z,37.67
2019-03-01T12:06:46.921Z,39.33
2019-03-01T12:09:18.238Z,32.67
2019-03-01T12:11:49.525Z,40.67
2019-03-01T12:14:22.312Z,38.73
2019-03-01T12:16:51.124Z,38.57
2019-03-01T12:19:22.701Z,40.70
2019-03-01T12:21:51.317Z,40.20
2019-03-01T12:24:22.885Z,37.47
2019-03-01T12:26:51.431Z,41.87
2019-03-01T12:29:23.244Z,41.50
2019-03-01T12:31:54.470Z,39.53
2019-03-01T12:34:25.762Z,43.13
2019-03-01T12:36:57.427Z,44.67
2019-03-01T12:39:28.707Z,40.30
2019-03-01T12:41:57.599Z,41.60
2019-03-01T12:44:29.283Z,41.60
2019-03-01T12:47:00.771Z,40.43
2019-03-01T12:49:29.355Z,41.10
2019-03-01T12:52:00.890Z,41.07
2019-03-01T12:54:32.199Z,39.27
2019-03-01T12:57:04.423Z,39.60
2019-03-01T12:59:37.809Z,38.20
2019-03-01T13:02:09.251Z,37.00
2019-03-01T13:04:40.832Z,38.60
2019-03-01T13:07:10.570Z,40.37
2019-03-01T13:09:42.772Z,38.47
2019-03-01T13:12:11.328Z,36.13
2019-03-01T13:14:43.071Z,36.47
2019-03-01T13:17:11.683Z,39.40
2019-03-01T13:19:43.092Z,36.10
2019-03-01T13:22:11.675Z,36.90
2019-03-01T13:24:40.666Z,40.43
2019-03-01T13:27:17.057Z,36.03
2019-03-01T13:29:47.455Z,35.43
2019-03-01T13:32:19.973Z,31.77
2019-03-01T13:34:50.455Z,36.50
2019-03-01T13:37:20.367Z,35.47
2019-03-01T13:39:52.322Z,36.80
2019-03-01T13:42:24.128Z,31.90
2019-03-01T13:44:52.705Z,30.70
2019-03-01T13:47:23.925Z,31.77
2019-03-01T13:49:52.536Z,30.50
2019-03-01T13:52:26.682Z,31.30
2019-03-01T13:54:54.220Z,31.70
2019-03-01T13:57:22.776Z,31.73
2019-03-01T13:59:51.403Z,29.10
2019-03-01T14:02:22.985Z,30.47
2019-03-01T14:04:54.526Z,33.67
2019-03-01T14:07:25.992Z,28.67
2019-03-01T14:09:57.311Z,30.53
2019-03-01T14:12:25.893Z,29.13
2019-03-01T14:14:59.347Z,26.67
2019-03-01T14:17:27.480Z,23.70
2019-03-01T14:19:56.497Z,23.93
2019-03-01T14:22:27.888Z,23.00
2019-03-01T14:24:56.621Z,24.03
2019-03-01T14:27:29.579Z,22.80
2019-03-01T14:29:58.491Z,22.33
2019-03-01T14:32:27.074Z,21.60
2019-03-01T14:34:56.000Z,22.40
2019-03-01T14:37:24.562Z,21.43
2019-03-01T14:39:56.051Z,19.63
2019-03-01T14:42:24.927Z,15.03
2019-03-01T14:44:53.885Z,15.60
2019-03-01T14:47:25.270Z,15.37
2019-03-01T14:49:57.626Z,13.30
2019-03-01T14:52:24.309Z,14.30
2019-03-01T14:54:52.887Z,15.07
2019-03-01T14:57:26.323Z,12.63
2019-03-01T15:00:01.272Z,14.50
2019-03-01T15:02:47.512Z,12.27
2019-03-01T15:05:19.592Z,13.73
2019-03-01T15:07:46.439Z,12.60
2019-03-01T15:10:15.315Z,13.47
2019-03-01T15:12:43.883Z,12.63
2019-03-01T15:15:13.898Z,11.80
2019-03-01T15:17:45.431Z,11.87
2019-03-01T15:20:17.237Z,10.27
2019-03-01T15:22:49.665Z,10.83
2019-03-01T15:25:18.380Z,13.03
2019-03-01T15:27:50.001Z,10.23
2019-03-01T15:30:23.192Z,11.33
2019-03-01T15:32:52.594Z,9.30
2019-03-01T15:35:24.178Z,12.13
2019-03-01T15:37:52.741Z,9.77
2019-03-01T15:40:21.372Z,10.80
2019-03-01T15:42:54.681Z,9.97
2019-03-01T15:45:26.291Z,9.17
2019-03-01T15:47:55.267Z,10.87
2019-03-01T15:50:27.364Z,8.70
2019-03-01T15:52:57.842Z,10.20
2019-03-01T15:55:26.391Z,8.13
2019-03-01T15:57:58.054Z,8.10
2019-03-01T16:00:29.618Z,9.30
2019-03-01T16:02:57.029Z,9.10
2019-03-01T16:05:28.892Z,9.73
2019-03-01T16:07:57.567Z,8.30
2019-03-01T16:10:28.929Z,8.70
2019-03-01T16:13:00.411Z,9.30
2019-03-01T16:15:28.970Z,9.10
2019-03-01T16:18:00.934Z,8.10
2019-03-01T16:20:28.525Z,7.90
2019-03-01T16:22:57.839Z,8.20
2019-03-01T16:25:26.392Z,7.57
2019-03-01T16:27:57.932Z,5.90
2019-03-01T16:30:29.541Z,6.63
2019-03-01T16:33:01.034Z,7.33
2019-03-01T16:35:32.312Z,5.90
2019-03-01T16:38:04.684Z,6.30
2019-03-01T16:40:36.270Z,7.13
2019-03-01T16:43:04.977Z,6.97
2019-03-01T16:45:38.806Z,6.57
2019-03-01T16:48:07.759Z,6.23
2019-03-01T16:50:37.090Z,6.87
2019-03-01T16:53:11.454Z,6.77
2019-03-01T16:55:42.819Z,9.97
2019-03-01T16:58:14.209Z,5.67
2019-03-01T17:00:45.915Z,5.07
2019-03-01T17:03:17.913Z,5.77
2019-03-01T17:05:49.739Z,6.80
2019-03-01T17:08:21.050Z,7.40
2019-03-01T17:10:52.410Z,6.03
2019-03-01T17:13:23.689Z,5.97
2019-03-01T17:15:54.195Z,5.40
2019-03-01T17:18:25.559Z,5.67
2019-03-01T17:20:57.102Z,5.40
2019-03-01T17:23:25.682Z,7.10
2019-03-01T17:25:56.984Z,5.57
2019-03-01T17:28:26.620Z,6.47
2019-03-01T17:30:58.548Z,5.93
2019-03-01T17:33:29.923Z,5.60
2019-03-01T17:36:01.298Z,6.07
2019-03-01T17:38:32.648Z,5.90
2019-03-01T17:41:01.301Z,5.40
2019-03-01T17:43:32.749Z,6.33
2019-03-01T17:46:00.534Z,5.97
2019-03-01T17:48:32.125Z,4.70
2019-03-01T17:51:01.371Z,6.53
2019-03-01T17:53:32.755Z,5.90
2019-03-01T17:56:01.297Z,6.47
2019-03-01T17:58:33.145Z,7.27
2019-03-01T18:01:04.536Z,6.80
2019-03-01T18:03:37.989Z,6.50
2019-03-01T18:06:09.350Z,5.60
2019-03-01T18:08:39.602Z,6.07
2019-03-01T18:11:12.620Z,5.63
2019-03-01T18:13:41.232Z,6.23
2019-03-01T18:16:09.839Z,6.93
2019-03-01T18:18:42.547Z,5.73
2019-03-01T18:21:13.183Z,7.00
2019-03-01T18:23:44.613Z,6.40
2019-03-01T18:26:13.140Z,7.60
2019-03-01T18:28:42.145Z,6.57
2019-03-01T18:31:10.786Z,7.07
2019-03-01T18:33:39.372Z,7.23
2019-03-01T18:36:10.748Z,7.17
2019-03-01T18:38:42.432Z,7.40
2019-03-01T18:41:11.214Z,6.60
2019-03-01T18:43:39.853Z,6.40
2019-03-01T18:46:08.683Z,5.67
2019-03-01T18:48:40.598Z,6.33
2019-03-01T18:51:10.838Z,7.40
2019-03-01T18:53:42.190Z,6.60
2019-03-01T18:56:11.006Z,7.27
2019-03-01T18:58:45.728Z,7.07
2019-03-01T19:01:15.827Z,6.43
2019-03-01T19:03:47.707Z,6.77
2019-03-01T19:06:17.218Z,7.67
2019-03-01T19:08:48.847Z,5.80
2019-03-01T19:11:20.127Z,6.60
2019-03-01T19:13:51.603Z,6.43
2019-03-01T19:16:25.343Z,6.77
2019-03-01T19:18:56.401Z,7.17
2019-03-01T19:21:27.877Z,6.50
2019-03-01T19:23:59.575Z,6.30
2019-03-01T19:26:33.762Z,5.93
2019-03-01T19:29:02.704Z,6.27
2019-03-01T19:31:34.820Z,6.23
2019-03-01T19:34:06.625Z,6.00
2019-03-01T19:36:39.764Z,8.17
2019-03-01T19:39:19.539Z,7.13
2019-03-01T19:41:54.554Z,7.00
2019-03-01T19:44:21.476Z,7.97
2019-03-01T19:46:53.265Z,6.83
2019-03-01T19:49:21.873Z,8.40
2019-03-01T19:51:52.969Z,8.00
2019-03-01T19:54:24.431Z,7.97
2019-03-01T19:56:53.044Z,8.07
2019-03-01T19:59:21.660Z,7.70
2019-03-01T20:01:52.568Z,8.47
2019-03-01T20:04:23.731Z,8.80
2019-03-01T20:06:52.345Z,10.33
2019-03-01T20:09:20.926Z,7.40
2019-03-01T20:11:49.575Z,7.13
2019-03-01T20:14:18.204Z,9.13
2019-03-01T20:16:47.212Z,9.97
2019-03-01T20:19:17.044Z,6.80
2019-03-01T20:21:50.613Z,8.80
2019-03-01T20:24:19.653Z,6.70
2019-03-01T20:26:51.369Z,7.50
2019-03-01T20:29:19.987Z,8.00
2019-03-01T20:31:51.393Z,6.50
2019-03-01T20:34:20.049Z,7.00
2019-03-01T20:36:49.586Z,6.97
2019-03-01T20:39:19.647Z,7.60
2019-03-01T20:41:48.538Z,7.93
2019-03-01T20:44:18.691Z,6.77
2019-03-01T20:46:47.861Z,7.50
2019-03-01T20:49:16.499Z,6.77
2019-03-01T20:51:45.073Z,6.30
2019-03-01T20:54:13.637Z,6.00
2019-03-01T20:56:42.253Z,5.90
2019-03-01T20:59:12.644Z,5.20
2019-03-01T21:01:41.228Z,5.67
2019-03-01T21:04:09.851Z,5.33
2019-03-01T21:06:41.507Z,5.43
2019-03-01T21:09:14.170Z,6.53
2019-03-01T21:11:44.423Z,5.30
2019-03-01T21:14:16.034Z,5.90
2019-03-01T21:16:47.719Z,5.70
2019-03-01T21:19:16.349Z,4.77
2019-03-01T21:21:44.965Z,5.63
2019-03-01T21:24:16.470Z,5.53
2019-03-01T21:26:51.234Z,4.60
2019-03-01T21:29:18.354Z,5.70
2019-03-01T21:31:47.419Z,6.63
2019-03-01T21:34:16.081Z,7.40
2019-03-01T21:36:44.699Z,6.03
2019-03-01T21:39:13.343Z,6.77
2019-03-01T21:41:44.773Z,5.67
2019-03-01T21:44:13.672Z,5.43
2019-03-01T21:46:43.267Z,6.10
2019-03-01T21:49:12.064Z,6.10
2019-03-01T21:51:41.109Z,5.50
2019-03-01T21:54:16.449Z,6.60
2019-03-01T21:56:55.611Z,5.63
2019-03-01T21:59:13.678Z,5.60
2019-03-01T22:01:43.786Z,5.37
2019-03-01T22:04:12.420Z,6.17
2019-03-01T22:06:44.216Z,5.63
2019-03-01T22:09:13.465Z,5.70
2019-03-01T22:11:42.086Z,6.30
2019-03-01T22:14:14.012Z,4.87
2019-03-01T22:16:41.480Z,5.70
2019-03-01T22:19:10.086Z,5.77
2019-03-01T22:21:38.712Z,5.10
2019-03-01T22:24:08.896Z,5.47
2019-03-01T22:26:37.732Z,5.70
2019-03-01T22:29:12.099Z,5.30
2019-03-01T22:31:39.809Z,5.67
2019-03-01T22:34:11.892Z,5.63
2019-03-01T22:36:40.499Z,5.20
2019-03-01T22:39:13.668Z,4.50
2019-03-01T22:41:43.925Z,6.37
2019-03-01T22:44:12.534Z,6.60
2019-03-01T22:46:43.830Z,5.23
2019-03-01T22:49:15.406Z,5.30
2019-03-01T22:51:49.648Z,4.97
2019-03-01T22:54:17.805Z,5.27
2019-03-01T22:56:48.443Z,5.77
2019-03-01T22:59:17.526Z,4.73
2019-03-01T23:01:49.615Z,5.37
2019-03-01T23:04:22.801Z,4.90
2019-03-01T23:06:54.429Z,5.63
2019-03-01T23:09:26.122Z,5.77
2019-03-01T23:11:55.157Z,4.53
2019-03-01T23:14:30.718Z,4.70
2019-03-01T23:16:58.649Z,4.90
2019-03-01T23:19:27.213Z,4.77
2019-03-01T23:21:58.839Z,5.87
2019-03-01T23:24:31.748Z,5.27
2019-03-01T23:27:00.565Z,5.20
2019-03-01T23:29:32.554Z,6.43
2019-03-01T23:32:01.097Z,5.60
2019-03-01T23:34:32.630Z,4.83
2019-03-01T23:37:03.578Z,4.80
2019-03-01T23:39:34.902Z,4.90
2019-03-01T23:42:06.401Z,5.50
2019-03-01T23:44:38.620Z,4.90
2019-03-01T23:47:10.096Z,5.60
2019-03-01T23:49:38.749Z,11.50
2019-03-01T23:52:07.539Z,5.70
2019-03-01T23:54:44.199Z,5.57
2019-03-01T23:57:15.053Z,5.33
2019-03-01T23:59:43.685Z,5.83
